Show Low, AZ (85901)

01:54 PM MST am 24. April 2017 (GMT -0700)
Navajo Pines | | Change Station
aktive Warnung: Wind Advisory

Höhe 6400 ft 34.25 °N, 110.05 °W | Updated 1 second ago

Clear
Heiter
69.6 °F
gefühlte 69.6 °F
N
2.7
Wind Wechselnd Wind aus West
Gusts 7.2 mph

Heute
Max. -- | schwach -- °F
--% Regenrisiko
Gestern
Max. -- | schwach -- °F
Precip. -- inch
Druck 29.91 inch
Sichtweite 10.0 Meilen
Wolken Heiter
Taupunkt 25 °F
Feuchtigkeit 19%
Regen 0.00 inch
Schneehöhe Nicht verfügbar..
5:37 AM 6:59 PM
Letztes Viertel, 4% visible
METAR KSOW 242035Z AUTO 22025G37KT 10SM CLR 19/M10 A2991 RMK AO2
Druck 29.91 inch
Sichtweite 10.0 Meilen
Wolken Heiter
Taupunkt 25 °F
Feuchtigkeit 19%
Regen 0.00 inch
Schneehöhe Nicht verfügbar..
5:37 AM 6:59 PM
Letztes Viertel, 4% visible
METAR KSOW 242035Z AUTO 22025G37KT 10SM CLR 19/M10 A2991 RMK AO2

Get Your Daily Forecast Email!

Thanks for signing up!

Be on the lookout for a verification email in your inbox.

You'll start receiving severe weather alerts in your inbox..

×

10-Day Weather Forecast

Almanac

Astronomie

Apr. 24, 2017 Aufgang Untergang
Genaue Zeit
Bürgerliche Dämmerung
Nautische Dämmerung
Astronomische Dämmerung
Mond
Länge des sichtbaren Lichts
Tageslänge
Tomorrow will be .
, % of the Moon is Illuminated

Heutige Rekorde

State Highs State Lows

Community

WunderPhotos

WunderBlog® & News

Nearby

Luftqualität

  Luftqualität LQ Index Schadstoff
Not available.

Schneehöhe

Station Depth Höhe

Erdbebenaktivität

Stadt Distance Mag. Time & Date
Minimum magnitude displayed is 2.5.

küstennahe Wassertemperaturen

Ort Temperatur

Stations

Wetterstationen in der Umgebung

Stationsstandort Temp. Windchill Taupunkt Feuchtigkeit Wind Precip. Höhe Aktualisiert Art
                   

Watches & Warnings

Wind Advisory
Issued: 13:29 MDT Apr. 24, 2017 – National Weather Service

... Wind Advisory remains in effect until 7 PM MST this evening...

* timing... gusty southwest winds to continue through 7 PM MST
tonight.

* Winds... southwest 25 to 40 mph with gusts to 50 mph.

* Impacts... winds this strong can make driving difficult...
especially for high profile vehicles. Consider securing loose
belongings on your property

Precautionary/preparedness actions...

A Wind Advisory means that sustained winds of 30 to 39 mph... or
gusts from 40 to 57 mph... are expected. Additional weather
information is on the web at www.Weather.Gov/Flagstaff.